createdAt,value
2018-05-13T00:00:24.989Z,0.00
2018-05-13T00:01:25.109Z,0.00
2018-05-13T00:02:25.301Z,0.00
2018-05-13T00:03:25.451Z,0.00
2018-05-13T00:04:25.592Z,0.00
2018-05-13T00:05:25.976Z,0.00
2018-05-13T00:06:26.023Z,0.00
2018-05-13T00:07:26.075Z,0.00
2018-05-13T00:08:26.274Z,0.00
2018-05-13T00:09:26.441Z,0.00
2018-05-13T00:10:26.605Z,0.00
2018-05-13T00:11:26.773Z,0.00
2018-05-13T00:12:26.943Z,0.00
2018-05-13T00:13:27.120Z,0.00
2018-05-13T00:14:27.275Z,0.00
2018-05-13T00:15:27.447Z,0.00
2018-05-13T00:16:27.616Z,0.00
2018-05-13T00:17:27.781Z,0.00
2018-05-13T00:18:27.962Z,0.00
2018-05-13T00:19:28.147Z,0.00
2018-05-13T00:20:28.337Z,0.00
2018-05-13T00:21:28.464Z,0.00
2018-05-13T00:22:28.623Z,0.00
2018-05-13T00:23:28.811Z,0.00
2018-05-13T00:24:28.957Z,0.00
2018-05-13T00:25:29.124Z,0.00
2018-05-13T00:26:29.397Z,0.00
2018-05-13T00:27:29.473Z,0.00
2018-05-13T00:28:29.655Z,0.00
2018-05-13T00:29:29.962Z,0.00
2018-05-13T00:30:30.075Z,0.00
2018-05-13T00:31:30.176Z,0.00
2018-05-13T00:32:30.359Z,0.00
2018-05-13T00:33:30.518Z,0.00
2018-05-13T00:34:30.690Z,0.00
2018-05-13T00:35:30.851Z,0.00
2018-05-13T00:36:31.033Z,0.00
2018-05-13T00:37:31.209Z,0.00
2018-05-13T00:38:31.420Z,0.00
2018-05-13T00:39:31.549Z,0.00
2018-05-13T00:40:31.737Z,0.00
2018-05-13T00:41:31.906Z,0.00
2018-05-13T00:42:32.075Z,0.00
2018-05-13T00:43:32.240Z,0.00
2018-05-13T00:44:32.407Z,0.00
2018-05-13T00:45:32.605Z,0.00
2018-05-13T00:46:32.765Z,0.00
2018-05-13T00:47:32.937Z,0.00
2018-05-13T00:48:33.114Z,0.00
2018-05-13T00:49:33.294Z,0.00
2018-05-13T00:50:33.446Z,0.00
2018-05-13T00:51:33.600Z,0.00
2018-05-13T00:52:33.783Z,0.00
2018-05-13T00:53:33.912Z,0.00
2018-05-13T00:54:34.102Z,0.00
2018-05-13T00:55:34.440Z,0.00
2018-05-13T00:56:34.420Z,0.00
2018-05-13T00:57:34.596Z,0.00
2018-05-13T00:58:34.808Z,0.00
2018-05-13T00:59:34.882Z,0.00
2018-05-13T01:00:35.036Z,0.00
2018-05-13T01:01:35.221Z,0.00
2018-05-13T01:02:35.385Z,0.00
2018-05-13T01:03:35.556Z,0.00
2018-05-13T01:04:35.730Z,0.00
2018-05-13T01:05:35.922Z,0.00
2018-05-13T01:06:36.077Z,0.00
2018-05-13T01:07:36.238Z,0.00
2018-05-13T01:08:36.433Z,0.00
2018-05-13T01:09:36.572Z,0.00
2018-05-13T01:10:36.785Z,0.00
2018-05-13T01:11:36.925Z,0.00
2018-05-13T01:12:37.107Z,0.00
2018-05-13T01:13:37.248Z,0.00
2018-05-13T01:14:37.458Z,0.00
2018-05-13T01:15:37.614Z,0.00
2018-05-13T01:16:37.783Z,0.00
2018-05-13T01:17:37.930Z,0.00
2018-05-13T01:18:38.103Z,0.00
2018-05-13T01:19:38.299Z,0.00
2018-05-13T01:20:38.444Z,0.00
2018-05-13T01:21:38.599Z,0.00
2018-05-13T01:22:38.911Z,0.00
2018-05-13T01:23:39.048Z,0.00
2018-05-13T01:24:39.117Z,0.00
2018-05-13T01:25:39.437Z,0.00
2018-05-13T01:26:39.616Z,0.00
2018-05-13T01:27:39.720Z,0.00
2018-05-13T01:28:39.843Z,0.00
2018-05-13T01:29:40.046Z,0.00
2018-05-13T01:30:40.353Z,0.00
2018-05-13T01:31:40.354Z,0.00
2018-05-13T01:32:40.514Z,0.00
2018-05-13T01:33:40.708Z,0.00
2018-05-13T01:34:40.845Z,0.00
2018-05-13T01:35:41.009Z,0.00
2018-05-13T01:36:41.247Z,0.00
2018-05-13T01:37:41.341Z,0.00
2018-05-13T01:38:41.512Z,0.00
2018-05-13T01:39:41.675Z,0.00
2018-05-13T01:40:41.832Z,0.00
2018-05-13T01:41:41.981Z,0.00
2018-05-13T01:42:42.163Z,0.00
2018-05-13T01:43:42.530Z,0.00
2018-05-13T01:44:42.472Z,0.00
2018-05-13T01:45:42.645Z,0.00
2018-05-13T01:46:42.816Z,0.00
2018-05-13T01:47:42.991Z,0.00
2018-05-13T01:48:43.155Z,0.00
2018-05-13T01:49:43.547Z,0.00
2018-05-13T01:50:43.562Z,0.00
2018-05-13T01:51:43.584Z,0.00
2018-05-13T01:52:43.751Z,0.00
2018-05-13T01:53:43.911Z,0.00
2018-05-13T01:54:44.122Z,0.00
2018-05-13T01:55:44.285Z,0.00
2018-05-13T01:56:44.459Z,0.00
2018-05-13T01:57:44.615Z,0.00
2018-05-13T01:58:44.769Z,0.00
2018-05-13T01:59:44.932Z,0.00
2018-05-13T02:00:45.092Z,0.00
2018-05-13T02:01:45.248Z,0.00
2018-05-13T02:02:45.417Z,0.00
2018-05-13T02:03:45.603Z,0.00
2018-05-13T02:04:45.753Z,0.00
2018-05-13T02:05:45.943Z,0.00
2018-05-13T02:06:46.099Z,0.00
2018-05-13T02:07:46.258Z,0.00
2018-05-13T02:08:46.424Z,0.00
2018-05-13T02:09:46.599Z,0.00
2018-05-13T02:10:46.785Z,0.00
2018-05-13T02:11:46.948Z,0.00
2018-05-13T02:12:47.127Z,0.00
2018-05-13T02:13:47.287Z,0.00
2018-05-13T02:14:47.461Z,0.00
2018-05-13T02:15:47.632Z,0.00
2018-05-13T02:16:47.810Z,0.00
2018-05-13T02:17:48.166Z,0.00
2018-05-13T02:18:48.122Z,0.00
2018-05-13T02:19:48.299Z,0.00
2018-05-13T02:20:48.460Z,0.00
2018-05-13T02:21:48.666Z,0.00
2018-05-13T02:22:48.791Z,0.00
2018-05-13T02:23:48.953Z,0.00
2018-05-13T02:24:49.116Z,0.00
2018-05-13T02:25:49.358Z,0.00
2018-05-13T02:26:49.458Z,0.00
2018-05-13T02:27:49.744Z,0.00
2018-05-13T02:28:49.812Z,0.00
2018-05-13T02:29:50.128Z,0.00
2018-05-13T02:30:50.216Z,0.00
2018-05-13T02:31:50.359Z,0.00
2018-05-13T02:32:50.540Z,0.00
2018-05-13T02:33:50.753Z,0.00
2018-05-13T02:34:50.867Z,0.00
2018-05-13T02:35:50.978Z,0.00
2018-05-13T02:36:51.189Z,0.00
2018-05-13T02:37:51.331Z,0.00
2018-05-13T02:38:51.478Z,0.00
2018-05-13T02:39:51.664Z,0.00
2018-05-13T02:40:51.896Z,0.00
2018-05-13T02:41:51.960Z,0.00
2018-05-13T02:42:52.154Z,0.00
2018-05-13T02:43:52.317Z,0.00
2018-05-13T02:44:52.453Z,0.00
2018-05-13T02:45:52.656Z,0.00
2018-05-13T02:46:52.790Z,0.00
2018-05-13T02:47:52.949Z,0.00
2018-05-13T02:48:53.106Z,0.00
2018-05-13T02:49:53.277Z,0.00
2018-05-13T02:50:53.451Z,0.00
2018-05-13T02:51:53.620Z,0.00
2018-05-13T02:52:53.787Z,0.00
2018-05-13T02:53:53.958Z,0.00
2018-05-13T02:54:54.130Z,0.00
2018-05-13T02:55:54.308Z,0.00
2018-05-13T02:56:54.471Z,0.00
2018-05-13T02:57:54.639Z,0.00
2018-05-13T02:58:54.809Z,0.00
2018-05-13T02:59:54.986Z,0.00
2018-05-13T03:00:55.148Z,0.00
2018-05-13T03:01:55.338Z,0.00
2018-05-13T03:02:55.495Z,4.00
2018-05-13T03:03:55.670Z,4.00
2018-05-13T03:04:55.831Z,0.00
2018-05-13T03:05:56.003Z,0.00
2018-05-13T03:06:56.174Z,4.00
2018-05-13T03:07:56.341Z,4.00
2018-05-13T03:08:56.522Z,4.00
2018-05-13T03:09:56.718Z,4.00
2018-05-13T03:10:56.861Z,4.00
2018-05-13T03:11:57.029Z,4.00
2018-05-13T03:12:57.201Z,4.00
2018-05-13T03:13:57.366Z,4.00
2018-05-13T03:14:57.536Z,8.00
2018-05-13T03:15:57.719Z,12.00
2018-05-13T03:16:57.877Z,12.00
2018-05-13T03:17:58.041Z,12.00
2018-05-13T03:18:58.288Z,16.00
2018-05-13T03:19:58.533Z,16.00
2018-05-13T03:20:58.747Z,20.00
2018-05-13T03:21:58.730Z,20.00
2018-05-13T03:22:58.912Z,24.00
2018-05-13T03:23:59.067Z,28.00
2018-05-13T03:24:59.239Z,28.00
2018-05-13T03:25:59.407Z,36.00
2018-05-13T03:26:59.573Z,40.00
2018-05-13T03:27:59.744Z,44.00
2018-05-13T03:28:59.913Z,52.00
2018-05-13T03:30:00.079Z,56.00
2018-05-13T03:31:00.245Z,64.00
2018-05-13T03:32:00.413Z,72.00
2018-05-13T03:33:00.591Z,76.00
2018-05-13T03:34:00.769Z,88.00
2018-05-13T03:35:00.943Z,92.00
2018-05-13T03:36:01.111Z,100.00
2018-05-13T03:37:01.486Z,108.00
2018-05-13T03:38:01.408Z,116.00
2018-05-13T03:39:02.128Z,128.00
2018-05-13T03:40:01.753Z,136.00
2018-05-13T03:41:01.926Z,144.00
2018-05-13T03:42:02.090Z,152.00
2018-05-13T03:43:02.269Z,164.00
2018-05-13T03:44:02.438Z,180.00
2018-05-13T03:45:03.334Z,192.00
2018-05-13T03:46:02.738Z,204.00
2018-05-13T03:47:03.084Z,216.00
2018-05-13T03:48:03.276Z,228.00
2018-05-13T03:49:03.550Z,244.00
2018-05-13T03:50:03.467Z,260.00
2018-05-13T03:51:03.640Z,276.00
2018-05-13T03:52:03.810Z,292.00
2018-05-13T03:53:04.143Z,312.00
2018-05-13T03:54:04.173Z,324.00
2018-05-13T03:55:04.511Z,344.00
2018-05-13T03:56:04.583Z,364.00
2018-05-13T03:57:04.748Z,376.00
2018-05-13T03:58:05.010Z,396.00
2018-05-13T03:59:05.074Z,416.00
2018-05-13T04:00:05.240Z,432.00
2018-05-13T04:01:05.570Z,448.00
2018-05-13T04:02:05.527Z,468.00
2018-05-13T04:03:05.682Z,488.00
2018-05-13T04:04:05.878Z,504.00
2018-05-13T04:05:06.031Z,520.00
2018-05-13T04:06:06.201Z,540.00
2018-05-13T04:07:06.370Z,556.00
2018-05-13T04:08:06.539Z,572.00
2018-05-13T04:09:06.716Z,592.00
2018-05-13T04:10:06.939Z,612.00
2018-05-13T04:11:07.042Z,628.00
2018-05-13T04:12:07.206Z,648.00
2018-05-13T04:13:07.407Z,664.00
2018-05-13T04:14:07.584Z,680.00
2018-05-13T04:15:08.017Z,700.00
2018-05-13T04:16:08.044Z,720.00
2018-05-13T04:17:08.273Z,732.00
2018-05-13T04:18:08.275Z,752.00
2018-05-13T04:19:08.435Z,768.00
2018-05-13T04:20:08.606Z,784.00
2018-05-13T04:21:08.774Z,800.00
2018-05-13T04:22:08.945Z,820.00
2018-05-13T04:23:09.119Z,836.00
2018-05-13T04:24:09.285Z,856.00
2018-05-13T04:25:09.465Z,872.00
2018-05-13T04:26:09.625Z,892.00
2018-05-13T04:27:09.805Z,904.00
2018-05-13T04:28:09.972Z,916.00
2018-05-13T04:29:10.153Z,928.00
2018-05-13T04:30:10.444Z,940.00
2018-05-13T04:31:10.724Z,952.00
2018-05-13T04:32:10.771Z,964.00
2018-05-13T04:33:11.066Z,976.00
2018-05-13T04:34:11.143Z,988.00
2018-05-13T04:35:11.312Z,1000.00
2018-05-13T04:36:11.516Z,1016.00
2018-05-13T04:37:11.731Z,1032.00
2018-05-13T04:38:11.890Z,1048.00
2018-05-13T04:39:12.054Z,1060.00
2018-05-13T04:40:12.224Z,1076.00
2018-05-13T04:41:12.401Z,1092.00
2018-05-13T04:42:12.569Z,1108.00
2018-05-13T04:43:12.819Z,1128.00
2018-05-13T04:44:12.904Z,1152.00
2018-05-13T04:45:13.081Z,1176.00
2018-05-13T04:46:13.379Z,1200.00
2018-05-13T04:47:13.426Z,1220.00
2018-05-13T04:48:13.596Z,1248.00
2018-05-13T04:49:13.809Z,1272.00
2018-05-13T04:50:13.987Z,1300.00
2018-05-13T04:51:14.371Z,1332.00
2018-05-13T04:52:14.284Z,1356.00
2018-05-13T04:53:14.423Z,1388.00
2018-05-13T04:54:14.586Z,1420.00
2018-05-13T04:55:14.757Z,1456.00
2018-05-13T04:56:14.936Z,1496.00
2018-05-13T04:57:15.102Z,1536.00
2018-05-13T04:58:15.271Z,1580.00
2018-05-13T04:59:15.438Z,1628.00
2018-05-13T05:00:15.611Z,1664.00
2018-05-13T05:01:15.777Z,1696.00
2018-05-13T05:02:15.969Z,1728.00
2018-05-13T05:03:16.137Z,1756.00
2018-05-13T05:04:16.309Z,1784.00
2018-05-13T05:05:16.467Z,1812.00
2018-05-13T05:06:16.709Z,1836.00
2018-05-13T05:07:16.906Z,1856.00
2018-05-13T05:08:17.013Z,1888.00
2018-05-13T05:09:17.329Z,1912.00
2018-05-13T05:10:17.362Z,1940.00
2018-05-13T05:11:17.523Z,1968.00
2018-05-13T05:12:17.713Z,1992.00
2018-05-13T05:13:17.862Z,2024.00
2018-05-13T05:14:18.036Z,2044.00
2018-05-13T05:15:18.204Z,2068.00
2018-05-13T05:16:18.371Z,2100.00
2018-05-13T05:17:18.541Z,2128.00
2018-05-13T05:18:18.708Z,2160.00
2018-05-13T05:19:18.875Z,2192.00
2018-05-13T05:20:19.050Z,2236.00
2018-05-13T05:21:19.219Z,2280.00
2018-05-13T05:22:19.387Z,2332.00
2018-05-13T05:23:19.725Z,2372.00
2018-05-13T05:24:19.679Z,2444.00
2018-05-13T05:25:19.847Z,2508.00
2018-05-13T05:26:20.104Z,2552.00
2018-05-13T05:27:20.216Z,2576.00
2018-05-13T05:28:20.644Z,2608.00
2018-05-13T05:29:20.446Z,2648.00
2018-05-13T05:30:20.630Z,2708.00
2018-05-13T05:31:20.797Z,2768.00
2018-05-13T05:32:20.971Z,2828.00
2018-05-13T05:33:21.153Z,2872.00
2018-05-13T05:34:21.727Z,2928.00
2018-05-13T05:35:21.441Z,2964.00
2018-05-13T05:36:21.615Z,3004.00
2018-05-13T05:37:21.789Z,3032.00
2018-05-13T05:38:21.956Z,3052.00
2018-05-13T05:39:22.125Z,3068.00
2018-05-13T05:40:22.295Z,3200.00
2018-05-13T05:41:22.695Z,3248.00
2018-05-13T05:42:22.687Z,3252.00
2018-05-13T05:43:22.853Z,3268.00
2018-05-13T05:44:23.027Z,3300.00
2018-05-13T05:45:23.195Z,3308.00
2018-05-13T05:46:23.352Z,3256.00
2018-05-13T05:47:23.528Z,3248.00
2018-05-13T05:48:23.713Z,3376.00
2018-05-13T05:49:23.876Z,3444.00
2018-05-13T05:50:24.054Z,3512.00
2018-05-13T05:51:24.223Z,3568.00
2018-05-13T05:52:24.392Z,3580.00
2018-05-13T05:53:24.561Z,3540.00
2018-05-13T05:54:24.735Z,3632.00
2018-05-13T05:55:24.917Z,3648.00
2018-05-13T05:56:25.089Z,3720.00
2018-05-13T05:57:25.252Z,3776.00
2018-05-13T05:58:25.423Z,3824.00
2018-05-13T05:59:25.595Z,3836.00
2018-05-13T06:00:26.084Z,3884.00
2018-05-13T06:01:25.925Z,3900.00
2018-05-13T06:02:26.098Z,3928.00
2018-05-13T06:03:26.268Z,3948.00
2018-05-13T06:04:26.458Z,4000.00
2018-05-13T06:05:26.608Z,4048.00
2018-05-13T06:06:26.776Z,4096.00
2018-05-13T06:07:26.951Z,4168.00
2018-05-13T06:08:27.115Z,4216.00
2018-05-13T06:09:27.307Z,4248.00
2018-05-13T06:10:28.243Z,4272.00
2018-05-13T06:11:27.914Z,4300.00
2018-05-13T06:12:28.049Z,4324.00
2018-05-13T06:13:27.989Z,4356.00
2018-05-13T06:14:28.165Z,4392.00
2018-05-13T06:15:28.341Z,4416.00
2018-05-13T06:16:28.522Z,4436.00
2018-05-13T06:17:28.688Z,4424.00
2018-05-13T06:18:28.861Z,4400.00
2018-05-13T06:19:29.029Z,4388.00
2018-05-13T06:20:29.336Z,4364.00
2018-05-13T06:21:29.383Z,4352.00
2018-05-13T06:22:29.716Z,4308.00
2018-05-13T06:23:29.753Z,4300.00
2018-05-13T06:24:29.928Z,4228.00
2018-05-13T06:25:30.253Z,4208.00
2018-05-13T06:26:30.331Z,4284.00
2018-05-13T06:27:30.506Z,4380.00
2018-05-13T06:28:30.783Z,4360.00
2018-05-13T06:29:31.104Z,4336.00
2018-05-13T06:30:31.096Z,4316.00
2018-05-13T06:31:31.427Z,4272.00
2018-05-13T06:32:31.650Z,4244.00
2018-05-13T06:33:31.583Z,4208.00
2018-05-13T06:34:31.765Z,4208.00
2018-05-13T06:35:31.935Z,4192.00
2018-05-13T06:36:32.104Z,4224.00
2018-05-13T06:37:32.274Z,4300.00
2018-05-13T06:38:32.449Z,4368.00
2018-05-13T06:39:32.670Z,4464.00
2018-05-13T06:40:32.790Z,4576.00
2018-05-13T06:41:33.106Z,4676.00
2018-05-13T06:42:33.235Z,4728.00
2018-05-13T06:43:33.288Z,4788.00
2018-05-13T06:44:33.466Z,4836.00
2018-05-13T06:45:33.745Z,4888.00
2018-05-13T06:46:33.862Z,4920.00
2018-05-13T06:47:34.005Z,4944.00
2018-05-13T06:48:34.152Z,4380.00
2018-05-13T06:49:34.330Z,5172.00
2018-05-13T06:50:34.507Z,5188.00
2018-05-13T06:51:34.694Z,5196.00
2018-05-13T06:52:34.915Z,5360.00
2018-05-13T06:53:35.001Z,5360.00
2018-05-13T06:54:35.178Z,5356.00
2018-05-13T06:55:35.350Z,5316.00
2018-05-13T06:57:28.663Z,5220.00
2018-05-13T06:58:28.921Z,4944.00
2018-05-13T07:01:02.242Z,5360.00
2018-05-13T07:02:02.622Z,5376.00
2018-05-13T07:03:02.547Z,5400.00
2018-05-13T07:04:02.971Z,5400.00
2018-05-13T07:05:03.458Z,5388.00
2018-05-13T07:06:03.646Z,5364.00
2018-05-13T07:07:02.988Z,5368.00
2018-05-13T07:08:03.163Z,5376.00
2018-05-13T07:09:03.336Z,5372.00
2018-05-13T07:10:03.504Z,5344.00
2018-05-13T07:11:03.697Z,5316.00
2018-05-13T07:12:03.874Z,5284.00
2018-05-13T07:13:04.049Z,5276.00
2018-05-13T07:14:04.223Z,5268.00
2018-05-13T07:15:04.400Z,5276.00
2018-05-13T07:16:04.585Z,5260.00
2018-05-13T07:17:04.748Z,5248.00
2018-05-13T07:18:04.938Z,5252.00
2018-05-13T07:19:05.108Z,5244.00
2018-05-13T07:20:05.289Z,5256.00
2018-05-13T07:21:05.464Z,5272.00
2018-05-13T07:22:05.640Z,5268.00
2018-05-13T07:23:05.815Z,5300.00
2018-05-13T07:24:06.009Z,5340.00
2018-05-13T07:25:06.173Z,5356.00
2018-05-13T07:26:06.358Z,5384.00
2018-05-13T07:27:06.531Z,5416.00
2018-05-13T07:28:06.714Z,5448.00
2018-05-13T07:29:06.891Z,5468.00
2018-05-13T07:30:07.071Z,5508.00
2018-05-13T07:31:07.244Z,5524.00
2018-05-13T07:32:07.418Z,5552.00
2018-05-13T07:33:07.588Z,5588.00
2018-05-13T07:34:07.764Z,5592.00
2018-05-13T07:35:07.959Z,5644.00
2018-05-13T07:36:08.102Z,5696.00
2018-05-13T07:37:08.292Z,5756.00
2018-05-13T07:38:08.465Z,5836.00
2018-05-13T07:39:08.634Z,5860.00
2018-05-13T07:40:08.802Z,5940.00
2018-05-13T07:41:08.976Z,5992.00
2018-05-13T07:42:09.149Z,6100.00
2018-05-13T07:43:09.323Z,6108.00
2018-05-13T07:44:09.496Z,6140.00
2018-05-13T07:45:09.686Z,6176.00
2018-05-13T07:46:09.867Z,6236.00
2018-05-13T07:47:10.039Z,6260.00
2018-05-13T07:48:10.224Z,6344.00
2018-05-13T07:49:10.377Z,6432.00
2018-05-13T07:50:10.554Z,6520.00
2018-05-13T07:51:10.732Z,6648.00
2018-05-13T07:52:10.905Z,6680.00
2018-05-13T07:53:11.074Z,6828.00
2018-05-13T07:54:11.245Z,6892.00
2018-05-13T07:55:11.417Z,6932.00
2018-05-13T07:56:11.610Z,7036.00
2018-05-13T07:57:11.768Z,7200.00
2018-05-13T07:58:11.946Z,7396.00
2018-05-13T07:59:12.135Z,7556.00
2018-05-13T08:00:12.300Z,7696.00
2018-05-13T08:01:12.474Z,7892.00
2018-05-13T08:02:12.645Z,7992.00
2018-05-13T08:03:12.825Z,8152.00
2018-05-13T08:04:13.011Z,8392.00
2018-05-13T08:05:13.186Z,8568.00
2018-05-13T08:06:13.371Z,8960.00
2018-05-13T08:07:13.556Z,9432.00
2018-05-13T08:08:13.710Z,10000.00
2018-05-13T08:09:13.935Z,10368.00
2018-05-13T08:10:14.059Z,10724.00
2018-05-13T08:11:14.259Z,10996.00
2018-05-13T08:12:14.430Z,11100.00
2018-05-13T08:13:14.606Z,11024.00
2018-05-13T08:14:14.788Z,10948.00
2018-05-13T08:15:14.967Z,10696.00
2018-05-13T08:16:15.151Z,9952.00
2018-05-13T08:17:15.929Z,8868.00
2018-05-13T08:18:15.446Z,8548.00
2018-05-13T08:19:15.625Z,8428.00
2018-05-13T08:20:15.902Z,8260.00
2018-05-13T08:21:15.980Z,7776.00
2018-05-13T08:22:16.153Z,7604.00
2018-05-13T08:23:16.330Z,7468.00
2018-05-13T08:24:16.513Z,7420.00
2018-05-13T08:25:16.694Z,7548.00
2018-05-13T08:26:16.866Z,7872.00
2018-05-13T08:27:17.040Z,8116.00
2018-05-13T08:28:17.209Z,8792.00
2018-05-13T08:29:17.377Z,8308.00
2018-05-13T08:30:17.561Z,7996.00
2018-05-13T08:31:17.735Z,7232.00
2018-05-13T08:32:17.911Z,7124.00
2018-05-13T08:33:18.089Z,7336.00
2018-05-13T08:34:18.265Z,8060.00
2018-05-13T08:35:18.438Z,10108.00
2018-05-13T08:36:18.620Z,10280.00
2018-05-13T08:37:18.801Z,10472.00
2018-05-13T08:38:18.967Z,10652.00
2018-05-13T08:39:19.135Z,10780.00
2018-05-13T08:40:19.309Z,10932.00
2018-05-13T08:41:19.485Z,11024.00
2018-05-13T08:42:19.661Z,11120.00
2018-05-13T08:43:19.836Z,11240.00
2018-05-13T08:44:20.016Z,11372.00
2018-05-13T08:45:20.263Z,11624.00
2018-05-13T08:46:20.383Z,11844.00
2018-05-13T08:47:20.557Z,12008.00
2018-05-13T08:48:20.729Z,12112.00
2018-05-13T08:49:20.907Z,12228.00
2018-05-13T08:50:21.092Z,12388.00
2018-05-13T08:51:21.261Z,12564.00
2018-05-13T08:52:21.447Z,12720.00
2018-05-13T08:53:21.621Z,12864.00
2018-05-13T08:54:21.805Z,13016.00
2018-05-13T08:55:21.999Z,13148.00
2018-05-13T08:56:22.176Z,13304.00
2018-05-13T08:57:22.358Z,13444.00
2018-05-13T08:58:22.530Z,13512.00
2018-05-13T08:59:22.710Z,13672.00
2018-05-13T09:00:22.896Z,13936.00
2018-05-13T09:01:23.065Z,14228.00
2018-05-13T09:02:23.240Z,14368.00
2018-05-13T09:03:23.424Z,14400.00
2018-05-13T09:04:23.605Z,14556.00
2018-05-13T09:05:23.780Z,14752.00
2018-05-13T09:06:23.957Z,14912.00
2018-05-13T09:07:24.130Z,15004.00
2018-05-13T09:08:24.386Z,15080.00
2018-05-13T09:09:24.494Z,15132.00
2018-05-13T09:10:24.653Z,15084.00
2018-05-13T09:11:24.827Z,15184.00
2018-05-13T09:12:25.023Z,15244.00
2018-05-13T09:13:25.186Z,15384.00
2018-05-13T09:14:25.483Z,15564.00
2018-05-13T09:15:25.552Z,15716.00
2018-05-13T09:16:25.718Z,15936.00
2018-05-13T09:17:25.895Z,15936.00
2018-05-13T09:18:26.088Z,16032.00
2018-05-13T09:19:26.272Z,15832.00
2018-05-13T09:20:26.450Z,16032.00
2018-05-13T09:21:26.631Z,16128.00
2018-05-13T09:22:26.816Z,16128.00
2018-05-13T09:23:27.005Z,16192.00
2018-05-13T09:24:27.177Z,15880.00
2018-05-13T09:25:27.361Z,16192.00
2018-05-13T09:26:27.542Z,16160.00
2018-05-13T09:27:27.720Z,16384.00
2018-05-13T09:28:27.908Z,16448.00
2018-05-13T09:29:28.081Z,16672.00
2018-05-13T09:30:28.266Z,17024.00
2018-05-13T09:31:28.450Z,17056.00
2018-05-13T09:32:28.642Z,17024.00
2018-05-13T09:33:28.811Z,16960.00
2018-05-13T09:34:28.996Z,16832.00
2018-05-13T09:35:29.182Z,15824.00
2018-05-13T09:36:29.370Z,17408.00
2018-05-13T09:37:29.557Z,17632.00
2018-05-13T09:38:29.741Z,17728.00
2018-05-13T09:39:29.959Z,18016.00
2018-05-13T09:40:30.102Z,18144.00
2018-05-13T09:41:30.280Z,16864.00
2018-05-13T09:42:30.717Z,12204.00
2018-05-13T09:43:31.560Z,12528.00
2018-05-13T09:44:30.836Z,13972.00
2018-05-13T09:45:31.016Z,20352.00
2018-05-13T09:46:31.199Z,19520.00
2018-05-13T09:47:31.383Z,19456.00
2018-05-13T09:48:31.565Z,19168.00
2018-05-13T09:49:31.860Z,19264.00
2018-05-13T09:50:31.917Z,19488.00
2018-05-13T09:51:32.103Z,19776.00
2018-05-13T09:52:32.284Z,17440.00
2018-05-13T09:53:32.460Z,17792.00
2018-05-13T09:54:32.641Z,17728.00
2018-05-13T09:55:32.825Z,16448.00
2018-05-13T09:56:33.009Z,16896.00
2018-05-13T09:57:33.218Z,16928.00
2018-05-13T09:58:33.371Z,17120.00
2018-05-13T09:59:33.562Z,17696.00
2018-05-13T10:00:33.745Z,18496.00
2018-05-13T10:01:33.943Z,18880.00
2018-05-13T10:02:34.129Z,19040.00
2018-05-13T10:03:34.314Z,19776.00
2018-05-13T10:04:34.611Z,19968.00
2018-05-13T10:05:34.686Z,19840.00
2018-05-13T10:06:34.871Z,19840.00
2018-05-13T10:07:35.059Z,14448.00
2018-05-13T10:08:35.245Z,14004.00
2018-05-13T10:09:35.492Z,14864.00
2018-05-13T10:10:35.619Z,14308.00
2018-05-13T10:11:35.810Z,20096.00
2018-05-13T10:12:35.993Z,21824.00
2018-05-13T10:13:36.179Z,21824.00
2018-05-13T10:14:36.360Z,21632.00
2018-05-13T10:15:36.545Z,20960.00
2018-05-13T10:16:36.731Z,20992.00
2018-05-13T10:17:36.913Z,20864.00
2018-05-13T10:18:37.108Z,21248.00
2018-05-13T10:19:37.390Z,21728.00
2018-05-13T10:20:37.484Z,22144.00
2018-05-13T10:21:37.665Z,20032.00
2018-05-13T10:22:37.859Z,18240.00
2018-05-13T10:23:38.041Z,21408.00
2018-05-13T10:24:38.237Z,19616.00
2018-05-13T10:25:38.417Z,14284.00
2018-05-13T10:26:38.601Z,20288.00
2018-05-13T10:27:38.786Z,18144.00
2018-05-13T10:28:38.973Z,19072.00
2018-05-13T10:29:39.147Z,22656.00
2018-05-13T10:30:39.335Z,20704.00
2018-05-13T10:31:39.523Z,14824.00
2018-05-13T10:32:39.702Z,14544.00
2018-05-13T10:33:39.894Z,20512.00
2018-05-13T10:34:40.079Z,16480.00
2018-05-13T10:35:40.258Z,16536.00
2018-05-13T10:36:40.440Z,14576.00
2018-05-13T10:37:40.624Z,15336.00
2018-05-13T10:38:40.808Z,22528.00
2018-05-13T10:39:40.989Z,23840.00
2018-05-13T10:40:41.171Z,23520.00
2018-05-13T10:41:41.372Z,23264.00
2018-05-13T10:42:41.568Z,22880.00
2018-05-13T10:43:41.767Z,18016.00
2018-05-13T10:44:41.959Z,23520.00
2018-05-13T10:45:42.133Z,14032.00
2018-05-13T10:46:42.318Z,17120.00
2018-05-13T10:47:42.498Z,34368.00
2018-05-13T10:48:42.692Z,25376.00
2018-05-13T10:49:42.869Z,15716.00
2018-05-13T10:50:43.057Z,13180.00
2018-05-13T10:51:43.237Z,12336.00
2018-05-13T10:52:43.427Z,10648.00
2018-05-13T10:53:43.617Z,8300.00
2018-05-13T10:54:43.792Z,6776.00
2018-05-13T10:55:43.977Z,6540.00
2018-05-13T10:56:44.154Z,6272.00
2018-05-13T10:57:44.420Z,4520.00
2018-05-13T10:58:44.517Z,3700.00
2018-05-13T10:59:44.700Z,3720.00
2018-05-13T11:00:44.879Z,3532.00
2018-05-13T11:01:45.066Z,3052.00
2018-05-13T11:02:45.240Z,2644.00
2018-05-13T11:03:45.431Z,2552.00
2018-05-13T11:04:45.680Z,2820.00
2018-05-13T11:05:45.794Z,3276.00
2018-05-13T11:06:45.978Z,3556.00
2018-05-13T11:07:46.156Z,3576.00
2018-05-13T11:08:46.353Z,3488.00
2018-05-13T11:09:46.587Z,3740.00
2018-05-13T11:10:46.727Z,4108.00
2018-05-13T11:11:46.897Z,4104.00
2018-05-13T11:12:47.084Z,4488.00
2018-05-13T11:13:47.268Z,4840.00
2018-05-13T11:14:47.526Z,4852.00
2018-05-13T11:15:47.620Z,6940.00
2018-05-13T11:16:47.796Z,10708.00
2018-05-13T11:17:47.976Z,12208.00
2018-05-13T11:18:48.156Z,14280.00
2018-05-13T11:19:48.330Z,16800.00
2018-05-13T11:20:48.541Z,18496.00
2018-05-13T11:21:48.688Z,27744.00
2018-05-13T11:22:48.874Z,38816.00
2018-05-13T11:23:49.056Z,105184.00
2018-05-13T11:24:49.226Z,10820.00
2018-05-13T11:25:49.474Z,7356.00
2018-05-13T11:26:49.546Z,6468.00
2018-05-13T11:27:49.701Z,5892.00
2018-05-13T11:28:49.879Z,5108.00
2018-05-13T11:29:50.060Z,5044.00
2018-05-13T11:30:50.242Z,4600.00
2018-05-13T11:31:50.417Z,4404.00
2018-05-13T11:32:50.599Z,4696.00
2018-05-13T11:33:50.859Z,5004.00
2018-05-13T11:34:50.956Z,5796.00
2018-05-13T11:35:51.138Z,6616.00
2018-05-13T11:36:51.315Z,7508.00
2018-05-13T11:37:51.496Z,8276.00
2018-05-13T11:38:51.680Z,9860.00
2018-05-13T11:39:51.872Z,10940.00
2018-05-13T11:40:52.093Z,11808.00
2018-05-13T11:41:52.223Z,12608.00
2018-05-13T11:42:52.412Z,13740.00
2018-05-13T11:43:52.585Z,15428.00
2018-05-13T11:44:52.789Z,18688.00
2018-05-13T11:45:52.981Z,38912.00
2018-05-13T11:46:53.153Z,88064.00
2018-05-13T11:48:53.499Z,79040.00
2018-05-13T11:49:53.679Z,69760.00
2018-05-13T11:50:53.864Z,119680.00
2018-05-13T11:51:54.041Z,129280.00
2018-05-13T11:52:54.227Z,128672.00
2018-05-13T11:53:54.404Z,91552.00
2018-05-13T11:54:54.587Z,29568.00
2018-05-13T11:55:54.777Z,16864.00
2018-05-13T11:56:54.964Z,13616.00
2018-05-13T11:57:55.130Z,13540.00
2018-05-13T11:58:55.330Z,14112.00
2018-05-13T11:59:55.550Z,15788.00
2018-05-13T12:00:55.948Z,16184.00
2018-05-13T12:01:56.614Z,14964.00
2018-05-13T12:02:56.098Z,11796.00
2018-05-13T12:03:56.267Z,13336.00
2018-05-13T12:04:56.465Z,17408.00
2018-05-13T12:05:56.644Z,48480.00
2018-05-13T12:06:57.037Z,65056.00
2018-05-13T12:07:56.958Z,60576.00
2018-05-13T12:08:57.145Z,61248.00
2018-05-13T12:09:57.332Z,50272.00
2018-05-13T12:10:57.511Z,32832.00
2018-05-13T12:11:57.702Z,45664.00
2018-05-13T12:12:57.894Z,70656.00
2018-05-13T12:13:58.099Z,52800.00
2018-05-13T12:14:58.275Z,35488.00
2018-05-13T12:15:58.464Z,15888.00
2018-05-13T12:16:58.659Z,16384.00
2018-05-13T12:17:58.836Z,14944.00
2018-05-13T12:18:59.027Z,14600.00
2018-05-13T12:19:59.209Z,20736.00
2018-05-13T12:20:59.442Z,30496.00
2018-05-13T12:21:59.590Z,29920.00
2018-05-13T12:22:59.793Z,13036.00
2018-05-13T12:23:59.976Z,9572.00
2018-05-13T12:25:00.160Z,8276.00
2018-05-13T12:26:00.361Z,7516.00